DW2489 Weather Reports


Display with metric or nautical units.
time (UTC)temp
F
wind
direction
speed
MPH
gust
MPH
rain 1hr
in
rain 24hr
in
rain mn
in
humidity
%
barometer
mb
20191211074259 30 312 2.0 10.0 0.00 0.48 0.00 56 1021.5
20191211073756 30 297 2.0 10.0 0.00 0.48 0.00 57 1021.5
20191211073247 30 293 3.0 6.0 0.00 0.49 0.00 59 1021.5
20191211072745 30 305 0.0 3.0 0.00 0.49 0.00 60 1020.8
20191211072241 30 304 1.0 6.0 0.00 0.50 0.00 60 1020.8
20191211071737 30 294 1.0 6.0 0.00 0.50 0.00 58 1021.5
20191211071225 30 305 2.0 7.0 0.00 0.50 0.00 58 1021.5
20191211070723 31 287 3.0 7.0 0.00 0.51 0.00 59 1021.2
20191211070219 31 273 3.0 11.0 0.00 0.51 0.00 60 1021.5
20191211065717 31 289 3.0 11.0 0.00 0.51 0.00 59 1021.5
20191211065207 31 270 5.0 11.0 0.00 0.52 0.00 60 1020.9
20191211064705 31 297 2.0 7.0 0.00 0.52 0.00 60 1020.5
20191211064201 31 299 2.0 7.0 0.00 0.52 0.00 60 1020.5
20191211063658 31 300 2.0 6.0 0.00 0.53 0.00 59 1020.5
20191211063154 31 272 2.0 10.0 0.00 0.54 0.00 60 1020.9
20191211062652 31 300 3.0 10.0 0.00 0.54 0.00 60 1020.9
20191211062146 31 278 4.0 10.0 0.00 0.55 0.00 61 1020.5
20191211061642 31 287 2.0 4.0 0.00 0.55 0.00 62 1020.5
20191211061138 32 309 2.0 4.0 0.00 0.55 0.00 61 1020.2
20191211060635 32 295 1.0 4.0 0.00 0.56 0.00 62 1020.2
20191211060130 32 39 1.0 4.0 0.00 0.56 0.00 63 1020.2
20191211051541 33 287 4.0 9.0 0.00 0.58 0.00 63 1020.2
20191211051039 33 268 3.0 10.0 0.00 0.58 0.00 63 1020.2
20191211050529 33 293 2.0 10.0 0.00 0.58 0.00 64 1019.9
20191211050027 33 286 3.0 10.0 0.00 0.59 0.00 64 1019.9
20191211045521 33 260 3.0 9.0 0.00 0.59 0.59 66 1019.9
20191211045016 33 263 2.0 7.0 0.00 0.59 0.59 66 1019.5
20191211044501 33 294 3.0 10.0 0.00 0.60 0.59 67 1019.5
20191211043958 33 266 2.0 10.0 0.00 0.60 0.59 67 1019.5
20191211043451 34 276 2.0 9.0 0.00 0.60 0.59 69 1019.9
20191211042947 34 290 3.0 9.0 0.00 0.60 0.59 69 1019.9
20191211042445 34 291 2.0 6.0 0.00 0.61 0.59 70 1019.5
20191211041943 33 314 1.0 6.0 0.00 0.61 0.59 72 1019.5
20191211041431 34 282 3.0 6.0 0.00 0.62 0.59 75 1019.2
20191211040929 34 341 0.0 1.0 0.00 0.62 0.59 77 1019.2
20191211040424 34 341 0.0 1.0 0.00 0.62 0.59 77 1019.2
20191211035922 34 341 1.0 1.0 0.00 0.62 0.59 78 1019.2
20191211035418 34 341 1.0 3.0 0.00 0.63 0.59 79 1019.2
20191211034916 34 341 0.0 4.0 0.00 0.63 0.59 79 1019.2
20191211034412 34 342 2.0 4.0 0.00 0.64 0.59 80 1019.2
20191211033910 34 316 0.0 1.0 0.00 0.64 0.59 80 1019.2
20191211033407 34 316 0.0 1.0 0.00 0.65 0.59 80 1018.9
20191211032903 34 316 0.0 1.0 0.00 0.65 0.59 80 1017.9
20191211032400 34 316 1.0 1.0 0.00 0.66 0.59 80 1017.9
20191211031857 34 317 1.0 1.0 0.00 0.66 0.59 80 1017.9
20191211031354 34 317 0.0 1.0 0.00 0.66 0.59 79 1017.5
20191211030851 35 294 0.0 1.0 0.00 0.67 0.59 78 1017.8
20191211030348 35 294 0.0 7.0 0.00 0.67 0.59 78 1017.8
20191211025844 35 294 1.0 7.0 0.00 0.68 0.59 77 1017.8
20191211025337 35 294 2.0 7.0 0.00 0.68 0.59 77 1017.8
20191211024832 35 279 2.0 6.0 0.00 0.68 0.59 77 1017.8
20191211024328 35 274 3.0 9.0 0.00 0.69 0.59 79 1017.8
20191211023824 35 278 3.0 9.0 0.00 0.70 0.59 81 1018.2
20191211023318 35 290 3.0 9.0 0.00 0.70 0.59 83 1018.2
20191211022757 35 274 2.0 4.0 0.00 0.71 0.59 84 1017.8
20191211022253 35 274 1.0 3.0 0.00 0.72 0.59 85 1017.8
20191211021750 35 274 1.0 3.0 0.00 0.72 0.59 85 1017.5
20191211021248 35 274 1.0 3.0 0.00 0.73 0.59 85 1017.5
20191211020744 35 274 1.0 3.0 0.00 0.74 0.59 86 1017.2
20191211020237 35 274 2.0 3.0 0.00 0.75 0.59 86 1017.2
20191211015731 35 274 2.0 3.0 0.00 0.76 0.59 87 1017.2
20191211015228 35 274 0.0 3.0 0.00 0.78 0.59 87 1017.2
20191211014725 34 274 2.0 3.0 0.00 0.79 0.59 87 1016.8
20191211014208 34 283 1.0 3.0 0.00 0.80 0.59 87 1016.5
20191211013706 34 245 1.0 3.0 0.00 0.80 0.59 87 1016.1
20191211013202 34 245 0.0 3.0 0.00 0.81 0.59 87 1016.2
20191211012659 35 245 1.0 3.0 0.00 0.81 0.59 87 1016.5
20191211012156 35 245 2.0 3.0 0.00 0.82 0.59 88 1016.2
20191211011645 35 245 0.0 1.0 0.00 0.82 0.59 87 1016.2
20191211011108 35 245 1.0 1.0 0.00 0.83 0.59 87 1015.8
20191211010603 35 245 0.0 1.0 0.00 0.84 0.59 87 1015.8
20191211010058 35 245 0.0 0.0 0.00 0.85 0.59 87 1015.8
20191211005542 35 245 0.0 0.0 0.00 0.86 0.59 87 1015.8
20191211005038 35 245 0.0 0.0 0.00 0.87 0.59 87 1015.8
20191211004537 35 245 0.0 0.0 0.00 0.88 0.59 87 1015.8
20191211004030 35 245 0.0 1.0 0.00 0.89 0.59 87 1015.5
20191211003528 35 245 0.0 1.0 0.00 0.90 0.59 87 1015.5
20191211003023 35 245 1.0 1.0 0.00 0.92 0.59 87 1015.5
20191211002520 35 245 1.0 1.0 0.00 0.92 0.59 87 1015.5
20191211002018 35 230 1.0 1.0 0.00 0.94 0.59 87 1015.8
20191211001510 35 244 1.0 3.0 0.00 0.94 0.59 87 1015.8
20191211001007 36 253 0.0 3.0 0.00 0.95 0.59 87 1015.8
20191211000503 36 253 1.0 3.0 0.00 0.96 0.59 87 1015.8
20191210235957 36 242 1.0 1.0 0.00 0.97 0.59 86 1015.5
20191210235453 36 243 0.0 1.0 0.00 0.98 0.59 86 1015.2
20191210234951 36 242 1.0 1.0 0.00 0.99 0.59 86 1015.2
20191210234445 36 243 0.0 3.0 0.00 1.00 0.59 86 1014.9
20191210233941 36 243 0.0 3.0 0.00 1.02 0.59 86 1014.9
20191210233436 36 238 2.0 3.0 0.00 1.03 0.59 86 1014.9
20191210232931 36 217 1.0 3.0 0.00 1.04 0.59 86 1014.9
20191210232425 36 209 2.0 3.0 0.00 1.05 0.59 86 1014.2
20191210231921 36 237 1.0 3.0 0.00 1.06 0.59 86 1014.5
20191210231415 36 237 2.0 3.0 0.00 1.07 0.59 86 1014.2
20191210230910 36 237 1.0 3.0 0.00 1.07 0.59 86 1014.2
20191210230406 36 237 0.0 3.0 0.00 1.07 0.59 86 1014.2
20191210225903 36 237 2.0 3.0 0.00 1.07 0.59 86 1014.2
20191210225350 36 237 2.0 3.0 0.00 1.07 0.59 86 1014.2
20191210224829 36 237 1.0 3.0 0.00 1.07 0.59 86 1013.9
20191210224327 36 237 1.0 3.0 0.00 1.07 0.59 86 1013.9
20191210223814 36 237 1.0 3.0 0.00 1.07 0.59 85 1013.5
20191210223256 36 223 2.0 3.0 0.00 1.07 0.59 86 1013.2
20191210222753 36 194 1.0 3.0 0.00 1.07 0.59 86 1012.5
20191210222244 36 253 2.0 3.0 0.00 1.07 0.59 86 1012.2
20191210221741 36 253 2.0 3.0 0.00 1.07 0.59 86 1012.2
20191210221237 36 253 1.0 3.0 0.00 1.07 0.59 86 1012.5
20191210220732 37 253 1.0 3.0 0.00 1.07 0.59 86 1012.5
20191210220228 37 253 2.0 3.0 0.00 1.07 0.59 86 1012.2
20191210215725 37 253 2.0 3.0 0.00 1.07 0.59 86 1011.8
20191210215223 37 253 0.0 1.0 0.00 1.07 0.59 86 1011.5
20191210214720 37 253 0.0 3.0 0.00 1.07 0.59 86 1011.5
20191210214212 37 253 0.0 3.0 0.00 1.07 0.59 86 1011.5
20191210213710 37 254 1.0 7.0 0.00 1.07 0.59 86 1011.5
20191210213157 38 257 1.0 7.0 0.00 1.07 0.59 86 1011.5
20191210212654 38 243 2.0 6.0 0.01 1.07 0.59 86 1011.8
20191210212149 38 258 2.0 7.0 0.01 1.07 0.59 86 1012.2
20191210211647 38 258 2.0 7.0 0.01 1.07 0.59 86 1011.8
20191210211139 38 276 2.0 6.0 0.01 1.07 0.59 87 1011.8
20191210210636 39 241 1.0 6.0 0.01 1.07 0.59 87 1011.5
20191210210131 39 263 2.0 6.0 0.01 1.07 0.59 87 1010.8
20191210205629 39 281 2.0 6.0 0.01 1.07 0.59 88 1010.5
20191210205126 39 291 2.0 6.0 0.01 1.07 0.59 87 1010.5
20191210204621 39 294 3.0 6.0 0.01 1.07 0.59 87 1010.2
20191210204118 40 259 1.0 1.0 0.01 1.07 0.59 88 1010.2
20191210203616 40 259 0.0 3.0 0.01 1.07 0.59 88 1010.2
20191210203103 40 260 1.0 4.0 0.01 1.07 0.59 88 1010.2
20191210202558 40 247 2.0 4.0 0.00 1.06 0.58 88 1010.2
20191210202055 40 247 2.0 3.0 0.00 1.06 0.58 88 1010.2
20191210201550 40 247 0.0 1.0 0.00 1.06 0.58 88 1009.8
20191210201047 40 247 0.0 1.0 0.00 1.06 0.58 88 1009.5
20191210200542 41 247 0.0 1.0 0.00 1.06 0.58 88 1009.1
20191210200039 41 247 1.0 1.0 0.00 1.06 0.58 88 1008.8
20191210195536 41 247 1.0 4.0 0.00 1.06 0.58 88 1008.5
20191210195032 41 247 0.0 4.0 0.00 1.06 0.58 88 1008.5
20191210194528 41 247 2.0 3.0 0.00 1.06 0.58 89 1008.5
20191210194026 41 247 0.0 1.0 0.00 1.06 0.58 89 1008.5
20191210193522 41 247 0.0 4.0 0.00 1.06 0.58 89 1008.1
20191210193020 41 246 2.0 9.0 0.00 1.06 0.58 89 1007.8
20191210192516 42 301 3.0 9.0 0.00 1.06 0.58 89 1007.8
20191210192013 42 266 3.0 9.0 0.00 1.06 0.58 89 1007.8
20191210191504 42 287 4.0 9.0 0.00 1.06 0.58 89 1007.5
20191210190959 43 274 2.0 9.0 0.00 1.06 0.58 89 1007.1
20191210190454 43 285 4.0 9.0 0.00 1.06 0.58 90 1007.1
20191210185950 43 269 3.0 10.0 0.00 1.06 0.58 90 1007.2
20191210185447 43 265 3.0 10.0 0.00 1.06 0.58 89 1007.5
20191210184944 44 259 3.0 10.0 0.00 1.06 0.58 90 1007.2
20191210184440 44 267 4.0 9.0 0.00 1.06 0.58 89 1007.2
20191210183937 44 305 2.0 9.0 0.01 1.06 0.58 90 1006.8
20191210183432 44 270 3.0 7.0 0.01 1.06 0.58 90 1006.5
20191210182929 44 256 3.0 7.0 0.01 1.06 0.58 90 1006.5
20191210182426 44 265 3.0 7.0 0.02 1.06 0.58 90 1006.8
20191210181922 44 268 2.0 4.0 0.03 1.06 0.58 90 1006.5
20191210181418 44 265 3.0 4.0 0.05 1.06 0.58 90 1006.1
20191210180915 44 263 1.0 1.0 0.07 1.06 0.58 90 1005.8
20191210180413 44 263 0.0 1.0 0.09 1.06 0.58 90 1006.1
20191210175911 45 263 1.0 4.0 0.12 1.06 0.58 90 1006.1
20191210175403 45 263 1.0 4.0 0.13 1.06 0.58 90 1006.1
20191210174900 45 246 2.0 7.0 0.13 1.06 0.58 90 1006.5
20191210174358 45 256 2.0 7.0 0.15 1.06 0.58 90 1006.5
20191210173855 45 250 3.0 6.0 0.14 1.05 0.57 90 1006.5
20191210173352 45 256 3.0 6.0 0.15 1.05 0.57 90 1006.5
20191210172850 45 305 2.0 6.0 0.15 1.04 0.56 88 1006.1
20191210172346 45 303 3.0 6.0 0.14 1.03 0.55 89 1006.1
20191210171843 44 313 3.0 7.0 0.14 1.03 0.55 89 1006.1
20191210171333 44 306 3.0 11.0 0.12 1.01 0.53 89 1006.1
20191210170826 43 301 2.0 11.0 0.11 0.99 0.51 88 1006.1
20191210170317 43 284 3.0 7.0 0.08 0.96 0.48 89 1005.8
20191210165814 43 286 2.0 7.0 0.07 0.94 0.46 89 1005.8
20191210165308 43 310 2.0 7.0 0.06 0.93 0.45 89 1005.5
20191210164805 43 73 3.0 6.0 0.05 0.92 0.44 88 1004.8
20191210164258 42 313 2.0 4.0 0.05 0.91 0.43 88 1005.5
20191210163755 43 302 3.0 4.0 0.05 0.91 0.43 88 1005.8
20191210163239 43 292 2.0 4.0 0.04 0.90 0.42 88 1005.5
20191210162737 43 208 2.0 4.0 0.03 0.89 0.41 89 1005.1
20191210162226 43 198 3.0 4.0 0.04 0.89 0.41 89 1005.1
20191210161724 43 342 1.0 4.0 0.04 0.89 0.41 89 1005.1
20191210161217 43 201 2.0 4.0 0.04 0.89 0.41 89 1005.1
20191210160714 43 283 2.0 4.0 0.03 0.88 0.40 89 1005.5
20191210160211 43 271 0.0 3.0 0.02 0.87 0.39 89 1005.1
20191210155708 43 271 1.0 3.0 0.02 0.87 0.39 88 1005.5
20191210155205 43 271 1.0 3.0 0.03 0.87 0.39 89 1005.8
20191210154700 43 271 2.0 3.0 0.04 0.87 0.39 88 1005.8
20191210154157 43 271 1.0 1.0 0.03 0.86 0.38 88 1005.8
20191210153636 44 270 1.0 6.0 0.03 0.86 0.38 89 1005.8
20191210153133 43 270 1.0 6.0 0.03 0.86 0.38 90 1006.2
20191210152605 43 214 1.0 4.0 0.03 0.86 0.38 89 1005.8
20191210152035 42 195 2.0 4.0 0.02 0.85 0.37 89 1006.1
20191210151511 41 216 2.0 4.0 0.02 0.85 0.37 89 1006.5
20191210151008 40 310 2.0 4.0 0.02 0.85 0.37 89 1006.4
20191210150505 40 310 0.0 3.0 0.03 0.85 0.37 89 1006.1
20191210150001 40 310 2.0 3.0 0.03 0.85 0.37 89 1006.1
20191210145457 40 310 0.0 1.0 0.03 0.85 0.37 89 1006.5
20191210144955 40 310 1.0 1.0 0.02 0.84 0.36 89 1006.5
20191210144452 40 310 1.0 1.0 0.02 0.83 0.35 88 1006.5
20191210143949 40 310 1.0 1.0 0.02 0.83 0.35 88 1006.8
20191210143442 40 310 0.0 1.0 0.02 0.83 0.35 88 1006.8
20191210142939 40 310 0.0 1.0 0.03 0.83 0.35 89 1006.5
20191210142432 40 309 0.0 0.0 0.03 0.83 0.35 89 1006.4
20191210141922 40 309 0.0 0.0 0.04 0.83 0.35 89 1006.4
20191210141418 40 310 0.0 0.0 0.04 0.83 0.35 88 1006.5
20191210140916 40 310 0.0 0.0 0.04 0.83 0.35 88 1006.1
20191210140408 41 310 0.0 0.0 0.04 0.82 0.34 89 1006.1
20191210135906 41 310 0.0 1.0 0.04 0.82 0.34 88 1006.1
20191210135402 41 310 0.0 3.0 0.04 0.82 0.34 88 1005.8
20191210134858 40 310 1.0 3.0 0.05 0.82 0.34 89 1006.1
20191210134352 40 310 1.0 3.0 0.04 0.81 0.33 89 1006.1
20191210133843 40 310 0.0 1.0 0.04 0.81 0.33 89 1006.1
20191210133341 41 310 1.0 1.0 0.04 0.81 0.33 89 1006.1
20191210132832 41 310 0.0 3.0 0.03 0.80 0.32 89 1005.8
20191210132328 41 304 1.0 3.0 0.02 0.79 0.31 89 1005.8
20191210131826 42 291 1.0 3.0 0.02 0.79 0.31 89 1005.8
20191210131323 42 279 0.0 1.0 0.02 0.79 0.31 89 1005.5
20191210130820 42 280 1.0 1.0 0.03 0.79 0.31 89 1005.8
20191210130316 42 279 1.0 1.0 0.02 0.78 0.30 89 1005.8
20191210125811 42 280 0.0 1.0 0.02 0.78 0.30 89 1005.5
20191210125231 42 279 1.0 1.0 0.02 0.78 0.30 89 1005.5
20191210124728 42 279 0.0 0.0 0.01 0.77 0.29 88 1005.1
20191210124221 42 280 0.0 1.0 0.02 0.77 0.29 89 1005.5
20191210123718 42 280 0.0 4.0 0.02 0.77 0.29 89 1005.1
20191210123215 42 280 1.0 4.0 0.02 0.77 0.29 89 1005.5
20191210122712 42 275 1.0 1.0 0.02 0.77 0.29 88 1005.1
20191210122205 42 276 1.0 1.0 0.02 0.77 0.29 88 1005.1
20191210121703 42 274 0.0 1.0 0.03 0.77 0.29 88 1005.1
20191210121154 42 274 0.0 1.0 0.03 0.77 0.29 88 1005.1
20191210120652 42 274 0.0 1.0 0.02 0.76 0.28 88 1005.1
20191210120148 42 274 1.0 1.0 0.03 0.76 0.28 88 1005.1
20191210115644 43 274 0.0 1.0 0.03 0.76 0.28 88 1005.1
20191210115143 43 274 0.0 3.0 0.03 0.76 0.28 88 1005.1
20191210114638 44 274 2.0 6.0 0.03 0.76 0.28 88 1005.2
20191210114136 44 274 1.0 6.0 0.03 0.75 0.27 88 1005.2
20191210113632 44 274 0.0 3.0 0.03 0.75 0.27 88 1004.8
20191210113025 44 274 2.0 4.0 0.04 0.75 0.27 88 1004.8
20191210112521 44 274 2.0 6.0 0.04 0.75 0.27 89 1004.8
20191210112009 44 265 2.0 6.0 0.03 0.74 0.26 88 1004.8
20191210111456 44 253 1.0 4.0 0.03 0.74 0.26 88 1004.8
20191210110951 44 264 2.0 4.0 0.04 0.74 0.26 88 1004.7
20191210110437 44 228 1.0 4.0 0.03 0.73 0.25 88 1004.7
20191210105932 44 239 2.0 4.0 0.03 0.73 0.25 88 1004.7
20191210105359 44 240 2.0 4.0 0.04 0.73 0.25 88 1004.4
20191210104855 44 257 2.0 4.0 0.04 0.73 0.25 88 1004.4
20191210104348 44 216 2.0 4.0 0.03 0.72 0.24 89 1004.1
20191210103828 44 246 2.0 6.0 0.05 0.72 0.24 91 1004.1
20191210103324 44 253 2.0 6.0 0.05 0.72 0.24 90 1004.1
20191210102819 44 209 2.0 4.0 0.04 0.71 0.23 90 1004.1
20191210102314 44 204 2.0 4.0 0.05 0.71 0.23 91 1004.1
20191210101812 44 210 2.0 4.0 0.06 0.71 0.23 91 1003.7
20191210101309 44 209 2.0 6.0 0.06 0.71 0.23 91 1003.7
20191210100754 43 209 1.0 6.0 0.05 0.70 0.22 91 1004.1
20191210100248 43 253 1.0 3.0 0.06 0.70 0.22 91 1004.1
20191210095745 43 253 1.0 4.0 0.05 0.69 0.21 91 1004.1
20191210095230 44 271 2.0 4.0 0.06 0.69 0.21 91 1003.7
20191210094727 43 231 2.0 4.0 0.06 0.69 0.21 91 1004.1
20191210094225 43 231 1.0 3.0 0.05 0.68 0.20 91 1003.7
20191210093722 43 231 1.0 3.0 0.04 0.67 0.19 91 1004.0
20191210093210 42 231 2.0 3.0 0.05 0.67 0.19 91 1004.0
20191210092706 42 307 1.0 1.0 0.04 0.66 0.18 91 1004.0
20191210092145 42 307 1.0 3.0 0.04 0.66 0.18 91 1004.0
20191210091637 42 307 1.0 3.0 0.03 0.65 0.17 91 1004.0
20191210091108 42 310 0.0 1.0 0.04 0.65 0.17 91 1003.7
20191210090606 42 311 1.0 4.0 0.03 0.64 0.16 91 1004.0
20191210090103 42 310 0.0 4.0 0.03 0.64 0.16 91 1004.0
20191210085559 43 303 0.0 3.0 0.03 0.64 0.16 91 1004.0
20191210085056 43 303 1.0 3.0 0.03 0.63 0.15 91 1003.7
20191210084545 43 303 1.0 6.0 0.04 0.63 0.15 92 1003.7
20191210084032 43 240 1.0 6.0 0.04 0.63 0.15 91 1003.7
20191210083530 43 181 2.0 3.0 0.05 0.63 0.15 91 1003.7
20191210083028 42 197 2.0 3.0 0.04 0.62 0.14 91 1003.4
20191210082526 42 216 2.0 3.0 0.05 0.62 0.14 91 1003.4
20191210082023 42 295 1.0 3.0 0.05 0.62 0.14 91 1003.4
20191210081520 41 252 2.0 3.0 0.04 0.61 0.13 91 1003.7
20191210081017 41 305 0.0 1.0 0.04 0.61 0.13 91 1003.7
20191210080510 41 306 0.0 3.0 0.05 0.61 0.13 91 1003.7
20191210080008 41 305 0.0 4.0 0.05 0.61 0.13 91 1003.7
20191210075459 41 306 0.0 4.0 0.05 0.60 0.12 91 1003.7
20191210074955 42 306 1.0 4.0 0.05 0.60 0.12 91 1003.7